Time;durP1;ratioP1;P1;durP2;ratioP2;P2;SDS_P1;SDS_P2;PMS_P1;PMS_P2;Temp;Humidity;BMP_temperature;BMP_pressure;BME280_temperature;BME280_humidity;BME280_pressure;Samples;Min_cycle;Max_cycle;Signal;HPM_P1;HPM_P2
2022/06/02 00:00:40;;;;;;;7.03;5.72;;;;;;;10.11;100.00;101899.44;5237608;28;20033;-71
2022/06/02 00:03:33;;;;;;;9.25;6.57;;;;;;;10.20;100.00;101891.81;5234696;28;20029;-71
2022/06/02 00:06:15;;;;;;;6.65;5.75;;;;;;;10.09;100.00;101898.72;5236869;28;20025;-71
2022/06/02 00:09:07;;;;;;;7.40;6.63;;;;;;;10.20;100.00;101889.22;5236417;28;20084;-71
2022/06/02 00:11:58;;;;;;;6.70;5.70;;;;;;;10.08;100.00;101903.13;5218476;28;20120;-71
2022/06/02 00:14:58;;;;;;;6.47;5.53;;;;;;;10.13;100.00;101910.66;5237048;28;20036;-71
2022/06/02 00:17:46;;;;;;;7.85;5.88;;;;;;;9.87;100.00;101889.66;5234869;28;20112;-71
2022/06/02 00:20:57;;;;;;;7.60;6.80;;;;;;;9.87;100.00;101897.50;5236836;28;20072;-72
2022/06/02 00:23:46;;;;;;;6.18;5.57;;;;;;;9.86;100.00;101897.59;5190346;28;20049;-70
2022/06/02 00:26:44;;;;;;;8.27;6.00;;;;;;;9.87;100.00;101900.13;5219111;28;20026;-71
2022/06/02 00:29:36;;;;;;;6.82;6.13;;;;;;;9.75;100.00;101900.91;5235887;28;20488;-70
2022/06/02 00:32:32;;;;;;;8.13;5.93;;;;;;;9.67;100.00;101897.97;5234896;28;20079;-71
2022/06/02 00:35:18;;;;;;;7.18;6.35;;;;;;;9.64;100.00;101909.44;5236578;28;20030;-71
2022/06/02 00:37:55;;;;;;;7.80;6.65;;;;;;;9.50;100.00;101901.63;5236724;28;20052;-69
2022/06/02 00:40:28;;;;;;;7.15;6.45;;;;;;;9.35;100.00;101899.97;5235580;28;20037;-68
2022/06/02 00:43:27;;;;;;;6.93;6.22;;;;;;;9.47;100.00;101902.69;5235777;28;20088;-70
2022/06/02 00:46:24;;;;;;;7.43;6.47;;;;;;;9.45;100.00;101891.47;5236684;28;20496;-69
2022/06/02 00:49:06;;;;;;;7.03;6.40;;;;;;;9.49;100.00;101908.63;5234888;28;20489;-68
2022/06/02 00:51:40;;;;;;;7.35;6.63;;;;;;;9.34;100.00;101909.59;5235786;28;20504;-69
2022/06/02 00:57:32;;;;;;;7.18;6.47;;;;;;;9.47;100.00;101907.91;5234961;28;20061;-69
2022/06/02 01:00:27;;;;;;;7.22;6.38;;;;;;;9.34;100.00;101919.22;5235954;28;20482;-69
2022/06/02 01:03:22;;;;;;;7.18;6.43;;;;;;;9.46;100.00;101911.44;5234949;28;20041;-71
2022/06/02 01:06:02;;;;;;;8.38;6.88;;;;;;;9.30;100.00;101913.34;5235328;28;20037;-71
2022/06/02 01:08:42;;;;;;;8.02;6.45;;;;;;;9.19;100.00;101913.19;5236776;28;20115;-70
2022/06/02 01:11:32;;;;;;;8.00;7.18;;;;;;;9.31;100.00;101919.41;5235336;28;20399;-70
2022/06/02 01:14:38;;;;;;;7.55;6.75;;;;;;;9.30;100.00;101908.13;5234952;28;20061;-70
2022/06/02 01:17:23;;;;;;;7.78;6.85;;;;;;;9.11;100.00;101910.19;5235186;28;20075;-69
2022/06/02 01:20:03;;;;;;;8.50;7.03;;;;;;;8.91;100.00;101909.66;5235398;28;20115;-68
2022/06/02 01:23:00;;;;;;;7.90;7.07;;;;;;;9.05;100.00;101906.16;5225810;28;20030;-70
2022/06/02 01:25:55;;;;;;;7.13;6.43;;;;;;;9.07;100.00;101906.94;5235953;28;20516;-67
2022/06/02 01:28:46;;;;;;;7.10;6.40;;;;;;;9.13;100.00;101911.78;5235223;28;20037;-68
2022/06/02 01:31:52;;;;;;;8.77;7.07;;;;;;;9.14;100.00;101910.00;5234750;28;20029;-70
2022/06/02 01:35:01;;;;;;;7.25;6.55;;;;;;;9.12;100.00;101911.88;5234548;28;20052;-70
2022/06/02 01:38:06;;;;;;;7.05;6.45;;;;;;;9.07;100.00;101920.00;5235323;28;20079;-68
2022/06/02 01:40:48;;;;;;;8.02;7.03;;;;;;;8.89;100.00;101916.72;5234101;28;20103;-68
2022/06/02 01:43:56;;;;;;;7.40;6.60;;;;;;;9.07;100.00;101921.78;5217085;28;20022;-68
2022/06/02 01:46:36;;;;;;;7.03;6.38;;;;;;;8.89;100.00;101923.72;5235731;28;20431;-67
2022/06/02 01:49:48;;;;;;;7.80;7.10;;;;;;;8.96;100.00;101904.13;5234551;28;20052;-67
2022/06/02 01:52:37;;;;;;;7.60;6.90;;;;;;;8.85;100.00;101909.16;5189623;28;20476;-67
2022/06/02 01:55:34;;;;;;;7.13;6.43;;;;;;;8.85;100.00;101910.00;5234385;28;20060;-69
2022/06/02 01:58:39;;;;;;;7.80;6.97;;;;;;;8.90;100.00;101910.59;5235184;28;20025;-68
2022/06/02 02:01:23;;;;;;;8.18;6.43;;;;;;;8.82;100.00;101917.19;5231642;28;20048;-68
2022/06/02 02:04:31;;;;;;;8.70;6.85;;;;;;;8.92;100.00;101916.53;5233661;28;20464;-67
2022/06/02 02:07:11;;;;;;;8.35;7.53;;;;;;;8.65;100.00;101916.44;5232575;28;20107;-70
2022/06/02 02:10:16;;;;;;;9.32;8.43;;;;;;;8.79;100.00;101915.63;5233347;28;20029;-70
2022/06/02 02:13:03;;;;;;;11.57;9.63;;;;;;;8.55;100.00;101927.50;5234117;28;20388;-68
2022/06/02 02:15:42;;;;;;;10.90;9.80;;;;;;;8.58;100.00;101922.94;5234416;28;20461;-68
2022/06/02 02:18:26;;;;;;;11.80;10.65;;;;;;;8.63;100.00;101927.91;5231603;28;20033;-69
2022/06/02 02:21:15;;;;;;;11.02;9.93;;;;;;;8.58;100.00;101924.72;5217294;28;20044;-68
2022/06/02 02:23:49;;;;;;;11.63;10.52;;;;;;;8.64;100.00;101927.00;5233051;28;20065;-68
2022/06/02 02:26:32;;;;;;;11.70;10.63;;;;;;;8.67;100.00;101925.00;5234039;28;20033;-67
2022/06/02 02:29:09;;;;;;;12.55;10.73;;;;;;;8.53;100.00;101928.44;5216252;28;20041;-67
2022/06/02 02:32:20;;;;;;;11.70;10.50;;;;;;;8.77;100.00;101933.16;5234613;28;20530;-67
2022/06/02 02:35:06;;;;;;;13.25;11.95;;;;;;;8.52;100.00;101926.78;5203742;28;20029;-68
2022/06/02 02:38:08;;;;;;;12.20;11.02;;;;;;;8.64;100.00;101937.44;5234096;28;20063;-67
2022/06/02 02:40:51;;;;;;;14.18;12.77;;;;;;;8.51;100.00;101932.91;5225459;28;20041;-70
2022/06/02 02:43:51;;;;;;;11.77;10.60;;;;;;;8.47;100.00;101930.56;5232992;28;20029;-70
2022/06/02 02:47:03;;;;;;;12.27;11.05;;;;;;;8.57;100.00;101930.88;5233618;28;20029;-69
2022/06/02 02:49:46;;;;;;;12.95;11.57;;;;;;;8.38;100.00;101933.75;5232345;28;20046;-68
2022/06/02 02:52:31;;;;;;;13.25;11.95;;;;;;;8.45;100.00;101933.28;5233776;28;20288;-67
2022/06/02 02:55:31;;;;;;;12.73;11.52;;;;;;;8.40;100.00;101926.63;5231880;28;20044;-68
2022/06/02 02:58:37;;;;;;;13.25;11.85;;;;;;;8.48;100.00;101938.31;5233015;28;20056;-68
2022/06/02 03:01:27;;;;;;;12.02;10.88;;;;;;;8.18;100.00;101940.06;5216711;28;20653;-69
2022/06/02 03:04:18;;;;;;;12.70;11.40;;;;;;;8.20;100.00;101933.00;5232160;28;20029;-68
2022/06/02 03:06:54;;;;;;;12.52;11.25;;;;;;;8.18;100.00;101946.13;5233216;28;20036;-70
2022/06/02 03:09:56;;;;;;;13.70;12.00;;;;;;;8.29;100.00;101945.50;5233531;28;20059;-69
2022/06/02 03:12:36;;;;;;;13.80;12.38;;;;;;;8.15;100.00;101948.09;5232883;28;20041;-69
2022/06/02 03:16:06;;;;;;;13.85;12.45;;;;;;;8.38;100.00;101952.84;5232717;28;20041;-68
2022/06/02 03:19:04;;;;;;;15.23;13.70;;;;;;;8.29;100.00;101955.94;5198974;28;20037;-68
2022/06/02 03:21:44;;;;;;;14.98;12.93;;;;;;;8.08;100.00;101952.81;5233336;28;20029;-67
2022/06/02 03:24:40;;;;;;;14.25;12.88;;;;;;;8.12;100.00;101954.31;5233109;28;20495;-67
2022/06/02 03:27:18;;;;;;;14.88;13.38;;;;;;;8.10;100.00;101963.13;5233302;28;20068;-67
2022/06/02 03:30:05;;;;;;;13.93;12.60;;;;;;;8.09;100.00;101961.47;5233099;28;20061;-69
2022/06/02 03:33:22;;;;;;;14.30;12.90;;;;;;;8.14;100.00;101968.09;5233203;28;20140;-68
2022/06/02 03:35:59;;;;;;;16.30;14.55;;;;;;;7.98;100.00;101970.72;5148521;29;20035;-68
2022/06/02 03:38:46;;;;;;;16.10;14.52;;;;;;;8.08;100.00;101978.06;5149874;29;20078;-68
2022/06/02 03:41:36;;;;;;;17.52;15.93;;;;;;;8.03;100.00;101976.56;5206905;28;20037;-70
2022/06/02 03:44:31;;;;;;;17.13;15.38;;;;;;;8.04;100.00;101977.38;5232899;28;20080;-68
2022/06/02 03:47:08;;;;;;;16.00;14.50;;;;;;;7.99;100.00;101985.50;5233255;28;20052;-68
2022/06/02 03:49:55;;;;;;;16.75;15.05;;;;;;;8.05;100.00;101977.28;5232898;28;20028;-68
2022/06/02 03:53:04;;;;;;;15.60;14.00;;;;;;;8.14;100.00;101983.75;5233084;28;20090;-68
2022/06/02 03:55:38;;;;;;;15.90;14.32;;;;;;;8.01;100.00;101986.22;5232154;28;20025;-68
2022/06/02 03:58:43;;;;;;;16.25;14.70;;;;;;;8.07;100.00;101985.06;5233044;28;20436;-69
2022/06/02 04:01:24;;;;;;;16.27;14.68;;;;;;;7.94;100.00;101989.25;5231060;28;20071;-68
2022/06/02 04:04:26;;;;;;;16.65;15.05;;;;;;;8.02;100.00;101989.66;5230894;28;20506;-69
2022/06/02 04:07:11;;;;;;;17.15;15.40;;;;;;;7.84;100.00;101988.06;5232040;28;20511;-68
2022/06/02 04:09:54;;;;;;;16.15;14.55;;;;;;;7.90;100.00;101987.75;5232950;28;20103;-68
2022/06/02 04:16:12;;;;;;;15.02;13.57;;;;;;;8.11;100.00;101997.00;5232801;28;20101;-68
2022/06/02 04:18:46;;;;;;;14.30;12.93;;;;;;;7.92;100.00;101998.97;5226382;28;20104;-68
2022/06/02 04:21:29;;;;;;;15.73;14.25;;;;;;;7.91;100.00;102005.09;5231921;28;20515;-68
2022/06/02 04:24:30;;;;;;;19.35;15.77;;;;;;;8.08;100.00;102004.16;5231912;28;20055;-68
2022/06/02 04:27:25;;;;;;;19.40;15.80;;;;;;;8.17;100.00;102004.47;5221592;28;20049;-70
2022/06/02 04:30:28;;;;;;;19.05;16.98;;;;;;;8.21;100.00;101999.94;5230815;28;20447;-69
2022/06/02 04:33:27;;;;;;;21.15;19.05;;;;;;;8.17;100.00;102012.31;5231897;28;20029;-68
2022/06/02 04:36:26;;;;;;;20.83;18.83;;;;;;;8.36;100.00;102011.28;5214818;28;20480;-68
2022/06/02 04:39:09;;;;;;;21.40;19.35;;;;;;;8.31;100.00;102011.53;5231854;28;20037;-68
2022/06/02 04:41:51;;;;;;;22.90;20.50;;;;;;;8.37;100.00;102019.06;5233075;28;20033;-70
2022/06/02 04:44:49;;;;;;;21.63;19.42;;;;;;;8.52;100.00;102018.19;5236586;28;20033;-68
2022/06/02 04:47:49;;;;;;;21.80;19.63;;;;;;;8.59;100.00;102018.66;5236450;28;20029;-68
2022/06/02 04:50:41;;;;;;;22.67;20.38;;;;;;;8.64;100.00;102029.69;5236720;28;20063;-70
2022/06/02 04:53:56;;;;;;;22.05;19.85;;;;;;;8.77;100.00;102014.16;5235733;28;20080;-70
2022/06/02 04:56:46;;;;;;;23.40;21.00;;;;;;;8.75;100.00;102016.88;5200246;28;20045;-68
2022/06/02 04:59:26;;;;;;;25.17;22.75;;;;;;;8.76;100.00;102020.31;5235558;28;20400;-68
2022/06/02 05:02:43;;;;;;;24.88;22.40;;;;;;;9.00;100.00;102016.25;5234870;28;20072;-68
2022/06/02 05:05:30;;;;;;;25.42;22.95;;;;;;;8.96;100.00;102019.97;5208787;28;20134;-68
2022/06/02 05:08:04;;;;;;;24.33;21.92;;;;;;;8.92;100.00;102020.25;5236065;28;20028;-68
2022/06/02 05:10:39;;;;;;;26.35;23.55;;;;;;;8.96;100.00;102021.75;5235563;28;20064;-69
2022/06/02 05:13:39;;;;;;;25.67;22.98;;;;;;;9.16;100.00;102024.00;5234835;28;20125;-68
2022/06/02 05:16:24;;;;;;;28.00;25.20;;;;;;;9.16;100.00;102025.78;5235598;28;20033;-68
2022/06/02 05:18:58;;;;;;;27.60;24.90;;;;;;;9.19;100.00;102033.44;5235875;28;20032;-68
2022/06/02 05:21:59;;;;;;;26.85;24.33;;;;;;;9.35;100.00;102025.50;5234365;28;20214;-70
2022/06/02 05:25:01;;;;;;;27.25;24.55;;;;;;;9.39;100.00;102014.75;5236105;28;20033;-68
2022/06/02 05:27:50;;;;;;;27.73;25.02;;;;;;;9.44;100.00;102025.81;5236168;28;20040;-68
2022/06/02 05:30:33;;;;;;;28.50;25.67;;;;;;;9.49;100.00;102020.28;5234217;28;20034;-68
2022/06/02 05:33:36;;;;;;;27.23;24.55;;;;;;;9.60;100.00;102022.25;5231879;28;20041;-71
2022/06/02 05:36:27;;;;;;;27.15;24.27;;;;;;;9.58;100.00;102030.16;5235062;28;20028;-70
2022/06/02 05:39:29;;;;;;;27.75;25.05;;;;;;;9.73;100.00;102023.16;5233800;28;20083;-68
2022/06/02 05:42:26;;;;;;;27.75;24.95;;;;;;;9.93;100.00;102030.63;5234872;28;20029;-67
2022/06/02 05:45:21;;;;;;;28.60;25.63;;;;;;;10.01;100.00;102022.28;5225940;28;20532;-67
2022/06/02 05:48:10;;;;;;;29.23;26.05;;;;;;;10.10;100.00;102028.69;5216905;28;20022;-70
2022/06/02 05:51:05;;;;;;;27.95;25.17;;;;;;;10.30;100.00;102033.50;5234502;28;20078;-70
2022/06/02 05:53:39;;;;;;;29.38;26.38;;;;;;;10.28;100.00;102034.56;5233614;28;20497;-68
2022/06/02 05:56:32;;;;;;;29.50;26.40;;;;;;;10.53;100.00;102041.66;5235900;28;20425;-70
2022/06/02 05:59:22;;;;;;;30.58;26.67;;;;;;;10.62;100.00;102041.06;5234790;28;20152;-68
2022/06/02 06:02:00;;;;;;;28.77;25.80;;;;;;;10.62;100.00;102048.94;5232232;28;20051;-68
2022/06/02 06:04:31;;;;;;;29.33;26.30;;;;;;;10.74;100.00;102052.53;5234888;28;20025;-68
2022/06/02 06:07:51;;;;;;;30.23;27.17;;;;;;;11.02;100.00;102051.50;5234193;28;20155;-70
2022/06/02 06:10:42;;;;;;;26.58;23.83;;;;;;;11.07;100.00;102060.75;5190276;28;20064;-69
2022/06/02 06:13:42;;;;;;;23.95;21.50;;;;;;;11.44;100.00;102053.00;5192379;28;20656;-68
2022/06/02 06:16:44;;;;;;;23.75;21.35;;;;;;;11.67;100.00;102059.28;5234499;28;20115;-68
2022/06/02 06:19:32;;;;;;;23.23;20.90;;;;;;;11.78;100.00;102061.13;5233672;28;20028;-68
2022/06/02 06:22:22;;;;;;;21.88;19.88;;;;;;;11.93;100.00;102066.19;5233734;28;20111;-70
2022/06/02 06:25:23;;;;;;;20.77;18.67;;;;;;;12.21;100.00;102063.38;5234639;28;20070;-71
2022/06/02 06:28:04;;;;;;;23.75;21.35;;;;;;;12.27;100.00;102074.25;5233364;28;20033;-68
2022/06/02 06:30:56;;;;;;;20.83;18.83;;;;;;;12.36;100.00;102063.09;5226802;28;20108;-69
2022/06/02 06:33:33;;;;;;;19.88;17.98;;;;;;;12.45;100.00;102069.47;5232823;28;20485;-68
2022/06/02 06:36:31;;;;;;;19.85;17.83;;;;;;;12.70;100.00;102070.28;5233866;28;20434;-68
2022/06/02 06:39:02;;;;;;;20.02;18.08;;;;;;;12.74;100.00;102077.00;5232902;28;20029;-68
2022/06/02 06:42:10;;;;;;;20.73;18.65;;;;;;;13.06;100.00;102071.94;5232465;28;20021;-70
2022/06/02 06:44:50;;;;;;;19.05;17.15;;;;;;;13.10;100.00;102074.22;5232483;28;20026;-70
2022/06/02 06:47:29;;;;;;;19.33;17.30;;;;;;;13.33;100.00;102082.19;5231684;28;20120;-72
2022/06/02 06:50:07;;;;;;;19.10;16.13;;;;;;;13.45;100.00;102085.66;5233014;28;20033;-70
2022/06/02 06:52:57;;;;;;;16.85;15.25;;;;;;;13.69;100.00;102088.22;5230946;28;20522;-70
2022/06/02 06:56:21;;;;;;;15.57;14.07;;;;;;;13.89;100.00;102087.47;5227985;28;21336;-69
2022/06/02 06:59:13;;;;;;;13.77;12.57;;;;;;;13.87;100.00;102092.03;5144001;28;20035;-69
2022/06/02 07:02:12;;;;;;;16.48;13.70;;;;;;;14.22;100.00;102099.75;5148301;28;20066;-71
2022/06/02 07:05:01;;;;;;;11.52;10.02;;;;;;;14.33;100.00;102089.19;5228410;28;20497;-72
2022/06/02 07:08:03;;;;;;;10.73;8.73;;;;;;;14.64;100.00;102092.00;5213951;28;20025;-69
2022/06/02 07:10:44;;;;;;;10.65;9.60;;;;;;;14.65;100.00;102101.56;5231062;28;20500;-71
2022/06/02 07:13:41;;;;;;;10.52;9.35;;;;;;;14.93;100.00;102105.44;5226788;28;20514;-71
2022/06/02 07:16:35;;;;;;;8.85;8.05;;;;;;;15.09;100.00;102105.81;5201530;28;20052;-71
2022/06/02 07:20:02;;;;;;;7.35;6.55;;;;;;;15.26;100.00;102107.00;5228971;28;20047;-70
2022/06/02 07:22:46;;;;;;;7.63;6.93;;;;;;;15.00;100.00;102114.50;5161058;28;20042;-71
2022/06/02 07:25:35;;;;;;;6.20;5.60;;;;;;;15.09;100.00;102116.38;5226354;28;20116;-71
2022/06/02 07:28:24;;;;;;;5.55;5.05;;;;;;;15.06;100.00;102116.63;5229463;28;21127;-71
2022/06/02 07:31:26;;;;;;;8.20;7.50;;;;;;;15.39;100.00;102113.91;5231972;28;20029;-71
2022/06/02 07:34:04;;;;;;;9.68;8.32;;;;;;;15.64;100.00;102118.75;5228086;28;20638;-71
2022/06/02 07:36:54;;;;;;;8.15;7.45;;;;;;;15.75;100.00;102116.06;5227492;28;20116;-71
2022/06/02 07:39:46;;;;;;;8.43;7.63;;;;;;;16.13;100.00;102119.78;5230934;28;20095;-71
2022/06/02 07:42:42;;;;;;;6.00;5.40;;;;;;;16.40;100.00;102123.59;5228488;28;20662;-71
2022/06/02 07:45:16;;;;;;;9.98;5.18;;;;;;;16.26;100.00;102130.16;5232046;28;20275;-71
2022/06/02 07:48:04;;;;;;;6.22;4.82;;;;;;;16.54;100.00;102123.22;5230458;28;20033;-71
2022/06/02 07:50:40;;;;;;;5.82;5.28;;;;;;;16.80;100.00;102106.84;5227108;28;20445;-71
2022/06/02 07:53:20;;;;;;;6.55;5.22;;;;;;;17.16;100.00;102126.44;5229337;28;20476;-71
2022/06/02 07:56:20;;;;;;;8.52;6.05;;;;;;;17.35;100.00;102115.81;5228433;28;20478;-71
2022/06/02 07:59:05;;;;;;;7.07;6.38;;;;;;;17.37;100.00;102113.84;5229470;28;20028;-71
2022/06/02 08:02:14;;;;;;;5.95;5.45;;;;;;;17.40;100.00;102099.47;5210408;28;20662;-71
2022/06/02 08:05:08;;;;;;;5.47;4.70;;;;;;;17.59;100.00;102110.00;5230135;28;20029;-71
2022/06/02 08:08:01;;;;;;;5.80;5.20;;;;;;;17.64;100.00;102110.41;5222368;28;20662;-71
2022/06/02 08:10:33;;;;;;;6.05;5.45;;;;;;;17.51;100.00;102113.38;5231632;28;20037;-71
2022/06/02 08:13:20;;;;;;;6.93;5.63;;;;;;;17.69;100.00;102121.44;5231530;28;20033;-71
2022/06/02 08:16:00;;;;;;;6.30;5.57;;;;;;;17.72;100.00;102114.97;5228526;28;20306;-71
2022/06/02 08:18:50;;;;;;;6.18;5.47;;;;;;;17.69;100.00;102113.47;5231261;28;20065;-72
2022/06/02 08:21:35;;;;;;;5.10;4.40;;;;;;;17.31;100.00;102108.28;5233825;28;20040;-71
2022/06/02 08:24:33;;;;;;;5.68;4.57;;;;;;;17.55;100.00;102108.63;5234533;28;20028;-71
2022/06/02 08:27:24;;;;;;;5.18;4.68;;;;;;;17.92;100.00;102111.31;5235939;28;20445;-71
2022/06/02 08:30:09;;;;;;;5.57;4.93;;;;;;;17.85;100.00;102112.03;5233014;28;20460;-71
2022/06/02 08:32:51;;;;;;;6.88;6.00;;;;;;;18.15;100.00;102118.88;5236452;28;20075;-71
2022/06/02 08:35:31;;;;;;;6.72;5.38;;;;;;;18.28;100.00;102121.16;5235719;28;20049;-71
2022/06/02 08:38:21;;;;;;;7.70;6.95;;;;;;;18.42;100.00;102118.00;5235063;28;20399;-71
2022/06/02 08:41:30;;;;;;;8.07;6.13;;;;;;;18.42;100.00;102128.59;5232282;28;20044;-72
2022/06/02 08:44:04;;;;;;;6.40;5.80;;;;;;;18.38;100.00;102124.59;5228663;28;20036;-71
2022/06/02 08:46:48;;;;;;;9.20;6.35;;;;;;;18.47;100.00;102121.84;5234666;28;20761;-71
2022/06/02 08:49:32;;;;;;;7.05;6.38;;;;;;;18.30;99.17;102140.41;5236844;28;20025;-72
2022/06/02 08:52:32;;;;;;;6.72;6.03;;;;;;;18.40;100.00;102130.56;5234619;28;20434;-72
2022/06/02 08:55:30;;;;;;;7.20;5.20;;;;;;;18.59;98.55;102130.41;5236681;28;20021;-71
2022/06/02 08:58:20;;;;;;;8.00;5.15;;;;;;;18.63;93.41;102134.44;5228071;28;20116;-72
2022/06/02 09:01:16;;;;;;;5.55;4.80;;;;;;;18.91;92.02;102126.44;5235978;28;20037;-71
2022/06/02 09:04:09;;;;;;;5.38;4.88;;;;;;;19.03;94.10;102129.69;5234320;28;20083;-71
2022/06/02 09:06:59;;;;;;;5.78;5.20;;;;;;;19.00;92.03;102119.34;5215344;28;20041;-71
2022/06/02 09:09:55;;;;;;;6.40;5.20;;;;;;;18.81;92.22;102115.06;5234419;28;20096;-71
2022/06/02 09:12:32;;;;;;;7.80;4.93;;;;;;;19.13;95.29;102122.44;5210374;28;20037;-73
2022/06/02 09:15:18;;;;;;;4.57;3.65;;;;;;;19.22;83.83;102121.50;5235938;28;20037;-71
2022/06/02 09:18:16;;;;;;;5.60;4.05;;;;;;;19.26;85.09;102133.50;5230263;28;20048;-71
2022/06/02 09:21:01;;;;;;;4.60;3.83;;;;;;;19.62;82.64;102131.59;5233419;28;20830;-71
2022/06/02 09:23:47;;;;;;;4.95;3.33;;;;;;;19.65;80.61;102120.63;5224832;28;20061;-71
2022/06/02 09:26:24;;;;;;;4.70;4.30;;;;;;;19.94;83.03;102124.75;5236012;28;20017;-71
2022/06/02 09:29:18;;;;;;;5.07;4.68;;;;;;;20.09;82.38;102123.13;5233224;28;20063;-71
2022/06/02 09:32:18;;;;;;;5.40;4.75;;;;;;;20.23;83.10;102123.50;5229159;28;20455;-71
2022/06/02 09:35:02;;;;;;;4.95;4.50;;;;;;;20.10;82.49;102127.47;5235593;28;20048;-71
2022/06/02 09:37:49;;;;;;;6.13;5.10;;;;;;;20.21;85.82;102120.19;5216225;28;20047;-72
2022/06/02 09:40:46;;;;;;;6.30;5.00;;;;;;;20.36;81.30;102115.88;5235542;28;20068;-72
2022/06/02 09:43:36;;;;;;;5.53;5.00;;;;;;;20.11;81.23;102120.31;5235678;28;20022;-72
2022/06/02 09:46:38;;;;;;;5.85;5.25;;;;;;;19.82;79.87;102116.22;5208820;28;20033;-71
2022/06/02 09:49:47;;;;;;;5.22;4.72;;;;;;;20.07;80.22;102118.97;5233626;28;20061;-72
2022/06/02 09:52:47;;;;;;;5.20;4.70;;;;;;;19.87;74.87;102118.41;5233108;28;20025;-72
2022/06/02 09:55:39;;;;;;;5.80;5.20;;;;;;;19.94;78.55;102124.75;5233051;28;20021;-72
2022/06/02 09:58:37;;;;;;;5.70;5.13;;;;;;;20.32;77.61;102117.22;5234821;28;20747;-72
2022/06/02 10:01:20;;;;;;;5.50;5.00;;;;;;;19.84;72.39;102116.06;5234080;28;20072;-72
2022/06/02 10:04:32;;;;;;;5.40;4.90;;;;;;;20.47;76.13;102122.72;5233458;28;20025;-72
2022/06/02 10:07:10;;;;;;;5.40;4.90;;;;;;;20.44;75.74;102115.91;5232402;28;20037;-72
2022/06/02 10:09:50;;;;;;;6.05;5.13;;;;;;;20.85;76.43;102119.47;5233448;28;20420;-72
2022/06/02 10:12:55;;;;;;;7.13;5.70;;;;;;;20.99;74.78;102103.81;5233767;28;20040;-72
2022/06/02 10:15:29;;;;;;;5.32;4.78;;;;;;;20.87;72.93;102106.81;5232836;28;20552;-72
2022/06/02 10:18:06;;;;;;;5.00;4.57;;;;;;;20.95;71.74;102097.13;5233512;28;20029;-72
2022/06/02 10:21:04;;;;;;;5.25;4.53;;;;;;;20.97;70.10;102108.47;5232919;28;20029;-71
2022/06/02 10:24:01;;;;;;;4.65;4.00;;;;;;;21.20;63.10;102100.59;5225395;28;20060;-72
2022/06/02 10:27:06;;;;;;;5.00;4.00;;;;;;;21.04;63.71;102107.63;5225404;28;20515;-72
2022/06/02 10:30:21;;;;;;;3.97;3.60;;;;;;;20.93;64.64;102101.81;5233163;28;20029;-72
2022/06/02 10:33:30;;;;;;;4.40;4.00;;;;;;;20.84;63.19;102107.16;5233443;28;20095;-70
2022/06/02 10:36:20;;;;;;;4.70;4.30;;;;;;;20.76;64.28;102093.84;5206286;28;20122;-70
2022/06/02 10:39:18;;;;;;;5.22;4.60;;;;;;;21.12;63.68;102099.63;5231743;28;20037;-70
2022/06/02 10:42:23;;;;;;;5.00;4.50;;;;;;;21.08;64.39;102090.28;5233894;28;20026;-70
2022/06/02 10:45:33;;;;;;;4.63;3.70;;;;;;;21.22;63.53;102095.94;5232730;28;20555;-70
2022/06/02 10:48:38;;;;;;;4.55;3.70;;;;;;;21.36;61.42;102097.94;5229450;28;20032;-70
2022/06/02 10:51:19;;;;;;;5.10;3.75;;;;;;;21.39;59.41;102100.25;5234685;28;20045;-70
2022/06/02 10:54:22;;;;;;;4.28;3.85;;;;;;;21.54;61.60;102092.38;5234358;28;20659;-70
2022/06/02 10:57:12;;;;;;;;;;;;;;;22.07;61.31;102096.97;5231895;28;20029;-70
2022/06/02 10:59:59;;;;;;;5.60;5.10;;;;;;;21.36;60.02;102090.75;5233204;28;20283;-70
2022/06/02 11:02:55;;;;;;;5.03;4.22;;;;;;;21.32;60.89;102091.25;5233573;28;20400;-70
2022/06/02 11:05:55;;;;;;;5.50;5.00;;;;;;;21.19;56.07;102091.78;5230755;28;20504;-71
2022/06/02 11:09:00;;;;;;;4.78;4.28;;;;;;;21.96;59.01;102091.22;5129771;28;20085;-70
2022/06/02 11:11:33;;;;;;;5.43;3.78;;;;;;;21.64;53.78;102093.03;5232968;28;20033;-70
2022/06/02 11:14:32;;;;;;;5.45;4.85;;;;;;;21.42;55.33;102083.09;5233035;28;20021;-72
2022/06/02 11:17:37;;;;;;;5.03;4.22;;;;;;;21.25;56.26;102084.94;5231991;28;20037;-71
2022/06/02 11:20:31;;;;;;;6.10;5.15;;;;;;;20.97;59.74;102081.81;5233263;28;20044;-71
2022/06/02 11:23:33;;;;;;;5.35;4.82;;;;;;;21.27;57.93;102086.44;5232029;28;20376;-70
2022/06/02 11:26:30;;;;;;;5.80;5.10;;;;;;;21.03;59.33;102083.81;5232668;28;20037;-70
2022/06/02 11:29:20;;;;;;;4.78;4.32;;;;;;;21.46;56.60;102074.56;5233614;28;20072;-70
2022/06/02 11:32:10;;;;;;;4.13;3.80;;;;;;;21.38;57.90;102072.78;5232517;28;20416;-70
2022/06/02 11:35:28;;;;;;;4.25;3.85;;;;;;;21.74;55.61;102066.13;5232011;28;20037;-70
2022/06/02 11:38:17;;;;;;;5.65;4.43;;;;;;;21.13;54.59;102073.78;5232998;28;20112;-70
2022/06/02 11:41:13;;;;;;;4.60;4.20;;;;;;;21.12;56.22;102077.47;5232595;28;20120;-70
2022/06/02 11:43:53;;;;;;;4.50;4.10;;;;;;;21.04;56.38;102064.16;5233176;28;20392;-70
2022/06/02 11:46:34;;;;;;;5.18;3.83;;;;;;;21.31;55.28;102066.44;5232778;28;20040;-70
2022/06/02 11:49:08;;;;;;;4.47;4.07;;;;;;;21.59;55.18;102060.69;5231613;28;20067;-70
2022/06/02 11:51:49;;;;;;;5.05;4.55;;;;;;;21.61;52.78;102053.38;5235782;28;20044;-71
2022/06/02 11:54:41;;;;;;;5.00;4.07;;;;;;;22.00;53.33;102050.66;5237530;28;20460;-70
2022/06/02 11:57:44;;;;;;;4.80;4.40;;;;;;;21.97;49.09;102045.69;5235823;28;20044;-71
2022/06/02 12:00:44;;;;;;;3.92;3.53;;;;;;;22.42;49.89;102046.72;5237381;28;20018;-71
2022/06/02 12:03:40;;;;;;;4.30;3.90;;;;;;;22.31;47.40;102050.66;5237348;28;20055;-70
2022/06/02 12:06:33;;;;;;;5.05;4.28;;;;;;;22.09;47.17;102038.94;5236397;28;20032;-70
2022/06/02 12:09:16;;;;;;;4.20;3.80;;;;;;;21.50;44.35;102043.91;5236682;28;20063;-71
2022/06/02 12:11:59;;;;;;;4.03;3.70;;;;;;;21.66;48.10;102044.84;5237525;28;20021;-70
2022/06/02 12:14:42;;;;;;;3.00;2.70;;;;;;;21.87;46.39;102034.41;5235415;28;20030;-70
2022/06/02 12:17:19;;;;;;;3.90;3.20;;;;;;;21.79;44.21;102021.09;5236711;28;20060;-70
2022/06/02 12:20:00;;;;;;;4.65;3.85;;;;;;;21.76;45.13;102027.63;5236936;28;20551;-71
2022/06/02 12:22:34;;;;;;;3.85;3.45;;;;;;;22.06;47.14;102017.94;5236101;28;20412;-70
2022/06/02 12:25:25;;;;;;;3.95;3.08;;;;;;;21.87;44.03;102013.06;5235037;28;20040;-70
2022/06/02 12:28:13;;;;;;;4.15;3.40;;;;;;;21.88;43.72;102012.03;5235845;28;20033;-71
2022/06/02 12:31:15;;;;;;;3.58;3.25;;;;;;;21.65;44.95;102016.50;5237342;28;20025;-70
2022/06/02 12:33:56;;;;;;;3.78;3.00;;;;;;;21.41;45.96;102018.28;5235350;28;20106;-70
2022/06/02 12:36:49;;;;;;;3.78;3.45;;;;;;;21.60;46.48;102023.19;5235566;28;20030;-70
2022/06/02 12:39:46;;;;;;;4.10;3.40;;;;;;;21.82;44.02;102015.41;5236363;28;20025;-71
2022/06/02 12:42:59;;;;;;;4.03;2.83;;;;;;;22.18;44.25;101999.69;5235896;28;20032;-70
2022/06/02 12:45:47;;;;;;;3.37;2.90;;;;;;;22.33;44.17;102008.56;5235275;28;20029;-70
2022/06/02 12:48:37;;;;;;;3.47;3.17;;;;;;;22.40;41.56;101992.69;5236373;28;20060;-70
2022/06/02 12:51:14;;;;;;;4.10;3.75;;;;;;;22.05;43.94;101997.59;5236082;28;20029;-70
2022/06/02 12:54:01;;;;;;;3.03;2.72;;;;;;;22.27;42.88;101992.44;5235243;28;20033;-70
2022/06/02 12:56:35;;;;;;;5.00;3.38;;;;;;;22.21;42.07;101995.84;5236741;28;20029;-70
2022/06/02 12:59:31;;;;;;;4.30;3.85;;;;;;;22.40;41.63;101994.53;5236174;28;20105;-70
2022/06/02 13:02:07;;;;;;;3.72;3.03;;;;;;;22.28;40.18;101996.78;5233008;28;20032;-70
2022/06/02 13:05:09;;;;;;;4.13;3.45;;;;;;;22.75;41.53;101990.34;5235503;28;20465;-70
2022/06/02 13:07:55;;;;;;;4.80;3.92;;;;;;;22.48;39.58;101979.25;5229070;28;20472;-70
2022/06/02 13:10:52;;;;;;;4.45;3.65;;;;;;;23.06;39.70;101988.34;5217740;28;20087;-70
2022/06/02 13:13:42;;;;;;;5.15;3.70;;;;;;;22.57;38.91;101988.00;5236374;28;20698;-70